createdAt,value
2022-07-31T00:01:49.536Z,2.00
2022-07-31T00:06:53.306Z,1.80
2022-07-31T00:11:56.916Z,2.20
2022-07-31T00:17:02.069Z,1.87
2022-07-31T00:22:05.928Z,1.93
2022-07-31T00:27:11.055Z,1.70
2022-07-31T00:32:16.105Z,1.80
2022-07-31T00:37:19.726Z,1.87
2022-07-31T00:42:25.502Z,1.97
2022-07-31T00:47:30.394Z,1.70
2022-07-31T00:52:33.858Z,1.90
2022-07-31T00:57:37.727Z,1.60
2022-07-31T01:02:46.257Z,1.70
2022-07-31T01:07:50.220Z,2.10
2022-07-31T01:12:57.990Z,2.00
2022-07-31T01:18:03.260Z,2.10
2022-07-31T01:23:22.775Z,1.90
2022-07-31T01:28:41.950Z,1.90
2022-07-31T01:33:50.107Z,1.90
2022-07-31T01:38:56.054Z,1.87
2022-07-31T01:44:02.544Z,1.90
2022-07-31T01:49:07.636Z,2.10
2022-07-31T01:54:13.491Z,1.80
2022-07-31T01:59:22.833Z,1.90
2022-07-31T02:04:29.160Z,1.57
2022-07-31T02:09:34.622Z,2.20
2022-07-31T02:14:40.954Z,1.77
2022-07-31T02:19:57.790Z,1.90
2022-07-31T02:25:03.953Z,2.00
2022-07-31T02:30:10.350Z,1.97
2022-07-31T02:35:16.663Z,2.00
2022-07-31T02:40:21.410Z,1.93
2022-07-31T02:45:26.779Z,1.80
2022-07-31T02:50:30.309Z,2.10
2022-07-31T02:55:34.937Z,2.00
2022-07-31T03:00:40.078Z,2.10
2022-07-31T03:05:43.647Z,1.80
2022-07-31T03:10:47.452Z,2.10
2022-07-31T03:15:53.309Z,2.20
2022-07-31T03:20:57.739Z,2.57
2022-07-31T03:26:01.801Z,2.33
2022-07-31T03:31:08.075Z,2.37
2022-07-31T03:36:11.595Z,2.83
2022-07-31T03:41:15.099Z,2.80
2022-07-31T03:46:22.066Z,2.60
2022-07-31T03:51:25.597Z,2.70
2022-07-31T03:56:30.355Z,2.20
2022-07-31T04:01:57.402Z,2.50
2022-07-31T04:06:59.862Z,2.80
2022-07-31T04:12:05.267Z,2.43
2022-07-31T04:17:10.584Z,2.70
2022-07-31T04:22:14.150Z,2.73
2022-07-31T04:27:18.704Z,2.60
2022-07-31T04:32:24.250Z,2.73
2022-07-31T04:37:34.035Z,2.70
2022-07-31T04:42:40.287Z,2.80
2022-07-31T04:47:45.137Z,2.87
2022-07-31T04:52:48.600Z,2.83
2022-07-31T04:57:52.101Z,2.60
2022-07-31T05:02:57.057Z,2.77
2022-07-31T05:08:02.132Z,3.10
2022-07-31T05:13:07.168Z,2.90
2022-07-31T05:18:13.121Z,2.83
2022-07-31T05:23:16.727Z,3.27
2022-07-31T05:28:20.129Z,2.90
2022-07-31T05:33:38.819Z,2.53
2022-07-31T05:38:44.036Z,2.93
2022-07-31T05:43:47.477Z,3.13
2022-07-31T05:48:52.505Z,3.00
2022-07-31T05:53:56.091Z,3.40
2022-07-31T05:58:59.710Z,4.60
2022-07-31T06:04:04.950Z,2.70
2022-07-31T06:09:08.462Z,2.60
2022-07-31T06:14:11.976Z,2.33
2022-07-31T06:19:16.872Z,2.43
2022-07-31T06:24:20.286Z,2.50
2022-07-31T06:29:41.710Z,2.63
2022-07-31T06:34:47.330Z,2.57
2022-07-31T06:39:55.869Z,2.63
2022-07-31T06:44:59.996Z,2.47
2022-07-31T06:50:06.059Z,2.70
2022-07-31T06:55:10.409Z,2.77
2022-07-31T07:00:20.412Z,2.90
2022-07-31T07:05:25.842Z,2.70
2022-07-31T07:10:29.265Z,3.13
2022-07-31T07:15:32.685Z,2.90
2022-07-31T07:20:37.477Z,3.20
2022-07-31T07:25:41.061Z,3.40
2022-07-31T07:30:44.435Z,3.20
2022-07-31T07:35:49.223Z,3.70
2022-07-31T07:40:53.539Z,3.50
2022-07-31T07:45:56.905Z,3.37
2022-07-31T07:51:01.780Z,3.40
2022-07-31T07:56:05.610Z,3.67
2022-07-31T08:01:09.226Z,3.13
2022-07-31T08:06:14.159Z,3.47
2022-07-31T08:11:18.077Z,3.63
2022-07-31T08:16:21.838Z,3.50
2022-07-31T08:21:26.861Z,3.63
2022-07-31T08:26:50.794Z,3.10
2022-07-31T08:31:54.301Z,3.20
2022-07-31T08:36:59.316Z,3.20
2022-07-31T08:42:22.708Z,3.03
2022-07-31T08:47:28.313Z,3.03
2022-07-31T08:52:35.956Z,3.27
2022-07-31T08:57:39.938Z,3.07
2022-07-31T09:02:53.023Z,3.10
2022-07-31T09:07:57.842Z,3.10
2022-07-31T09:13:01.287Z,3.17
2022-07-31T09:18:04.795Z,2.80
2022-07-31T09:23:12.007Z,3.30
2022-07-31T09:28:15.497Z,3.10
2022-07-31T09:33:22.986Z,3.10
2022-07-31T09:38:34.928Z,2.90
2022-07-31T09:43:51.623Z,2.40
2022-07-31T09:49:00.143Z,2.20
2022-07-31T09:54:05.271Z,2.00
2022-07-31T09:59:11.622Z,2.17
2022-07-31T10:04:17.799Z,2.03
2022-07-31T10:09:23.168Z,2.00
2022-07-31T10:14:30.307Z,2.20
2022-07-31T10:19:38.132Z,2.30
2022-07-31T10:24:48.365Z,1.90
2022-07-31T10:29:52.438Z,2.80
2022-07-31T10:34:56.514Z,2.70
2022-07-31T10:40:08.647Z,2.00
2022-07-31T10:45:14.391Z,2.33
2022-07-31T10:50:23.870Z,2.47
2022-07-31T10:55:33.438Z,2.47
2022-07-31T11:00:40.382Z,2.40
2022-07-31T11:06:01.303Z,2.30
2022-07-31T11:11:08.189Z,2.40
2022-07-31T11:16:11.623Z,2.60
2022-07-31T11:21:37.603Z,2.23
2022-07-31T11:26:43.023Z,2.30
2022-07-31T11:31:46.557Z,2.33
2022-07-31T11:36:51.670Z,2.03
2022-07-31T11:41:56.750Z,2.70
2022-07-31T11:47:00.184Z,2.30
2022-07-31T11:52:04.904Z,2.40
2022-07-31T11:57:10.275Z,2.20
2022-07-31T12:02:14.651Z,2.50
2022-07-31T12:07:18.224Z,2.20
2022-07-31T12:12:23.216Z,2.23
2022-07-31T12:17:30.841Z,2.60
2022-07-31T12:22:46.670Z,2.30
2022-07-31T12:27:56.507Z,2.27
2022-07-31T12:33:06.798Z,2.20
2022-07-31T12:38:30.238Z,2.20
2022-07-31T12:43:35.431Z,2.20
2022-07-31T12:48:44.340Z,2.23
2022-07-31T12:53:49.899Z,2.20
2022-07-31T12:58:54.872Z,2.17
2022-07-31T13:03:58.816Z,2.13
2022-07-31T13:09:02.980Z,2.10
2022-07-31T13:14:07.883Z,1.87
2022-07-31T13:19:15.306Z,1.83
2022-07-31T13:25:02.895Z,2.30
2022-07-31T13:30:09.216Z,1.87
2022-07-31T13:35:25.970Z,2.27
2022-07-31T13:40:49.531Z,2.27
2022-07-31T13:45:54.387Z,2.00
2022-07-31T13:50:57.888Z,2.13
2022-07-31T13:56:01.529Z,2.07
2022-07-31T14:01:06.758Z,1.90
2022-07-31T14:06:13.183Z,2.27
2022-07-31T14:11:16.698Z,2.10
2022-07-31T14:16:21.679Z,2.40
2022-07-31T14:21:25.149Z,2.03
2022-07-31T14:26:28.653Z,2.00
2022-07-31T14:31:33.684Z,2.10
2022-07-31T14:36:37.124Z,2.27
2022-07-31T14:41:40.718Z,1.80
2022-07-31T14:46:45.650Z,2.00
2022-07-31T14:51:49.073Z,1.80
2022-07-31T14:57:01.289Z,1.87
2022-07-31T15:02:06.700Z,2.10
2022-07-31T15:07:33.605Z,2.03
2022-07-31T15:12:33.849Z,1.70
2022-07-31T15:17:38.781Z,1.73
2022-07-31T15:22:42.230Z,1.80
2022-07-31T15:27:45.740Z,2.20
2022-07-31T15:32:52.877Z,1.90
2022-07-31T15:37:56.397Z,1.70
2022-07-31T15:43:00.240Z,1.50
2022-07-31T15:48:09.674Z,1.80
2022-07-31T15:53:13.488Z,1.60
2022-07-31T15:58:16.989Z,2.00
2022-07-31T16:03:21.836Z,1.67
2022-07-31T16:08:33.707Z,1.80
2022-07-31T16:13:38.555Z,2.00
2022-07-31T16:18:43.592Z,2.20
2022-07-31T16:23:47.049Z,2.00
2022-07-31T16:29:00.429Z,1.90
2022-07-31T16:34:05.464Z,2.25
2022-07-31T16:39:20.078Z,1.90
2022-07-31T16:44:24.737Z,2.10
2022-07-31T16:49:35.891Z,2.10
2022-07-31T16:54:40.962Z,2.00
2022-07-31T16:59:56.811Z,2.10
2022-07-31T17:05:03.277Z,1.83
2022-07-31T17:10:08.042Z,1.90
2022-07-31T17:15:15.524Z,1.80
2022-07-31T17:20:23.706Z,1.90
2022-07-31T17:25:27.668Z,1.90
2022-07-31T17:30:32.713Z,1.80
2022-07-31T17:35:37.868Z,1.83
2022-07-31T17:40:43.908Z,2.23
2022-07-31T17:45:59.865Z,2.00
2022-07-31T17:51:14.434Z,2.17
2022-07-31T17:56:17.988Z,2.20
2022-07-31T18:01:25.617Z,2.33
2022-07-31T18:06:33.969Z,2.10
2022-07-31T18:11:37.414Z,1.90
2022-07-31T18:16:40.831Z,2.30
2022-07-31T18:21:45.819Z,1.90
2022-07-31T18:26:49.682Z,2.07
2022-07-31T18:31:53.132Z,2.20
2022-07-31T18:36:58.133Z,2.20
2022-07-31T18:42:01.603Z,2.00
2022-07-31T18:47:05.181Z,2.10
2022-07-31T18:52:10.224Z,2.37
2022-07-31T18:57:13.713Z,2.50
2022-07-31T19:02:17.225Z,2.10
2022-07-31T19:07:28.659Z,1.90
2022-07-31T19:12:32.097Z,2.10
2022-07-31T19:17:44.000Z,2.30
2022-07-31T19:22:50.039Z,2.10
2022-07-31T19:27:53.609Z,2.20
2022-07-31T19:32:59.142Z,2.07
2022-07-31T19:38:05.070Z,2.13
2022-07-31T19:43:08.811Z,2.10
2022-07-31T19:48:12.330Z,2.73
2022-07-31T19:53:17.259Z,2.03
2022-07-31T19:58:21.527Z,2.40
2022-07-31T20:03:26.514Z,2.00
2022-07-31T20:08:33.387Z,2.10
2022-07-31T20:13:38.792Z,2.43
2022-07-31T20:18:42.299Z,2.00
2022-07-31T20:23:48.812Z,2.23
2022-07-31T20:28:52.556Z,2.30
2022-07-31T20:33:57.478Z,2.10
2022-07-31T20:39:03.133Z,2.40
2022-07-31T20:44:07.185Z,2.50
2022-07-31T20:49:19.429Z,2.27
2022-07-31T20:54:36.249Z,2.47
2022-07-31T20:59:39.819Z,2.40
2022-07-31T21:04:43.466Z,2.10
2022-07-31T21:09:48.754Z,2.40
2022-07-31T21:14:52.267Z,2.47
2022-07-31T21:19:55.911Z,2.73
2022-07-31T21:25:04.613Z,2.50
2022-07-31T21:30:10.165Z,2.20
2022-07-31T21:35:15.156Z,2.27
2022-07-31T21:40:40.894Z,2.50
2022-07-31T21:45:55.746Z,2.30
2022-07-31T21:51:05.386Z,2.50
2022-07-31T21:56:12.566Z,2.40
2022-07-31T22:01:16.156Z,2.40
2022-07-31T22:06:37.010Z,2.10
2022-07-31T22:11:41.907Z,2.40
2022-07-31T22:17:02.493Z,2.40
2022-07-31T22:22:08.428Z,2.10
2022-07-31T22:27:32.168Z,2.53
2022-07-31T22:32:35.886Z,2.63
2022-07-31T22:37:42.863Z,2.50
2022-07-31T22:42:57.585Z,2.40
2022-07-31T22:48:02.907Z,2.40
2022-07-31T22:53:06.390Z,2.63
2022-07-31T22:58:11.657Z,3.00
2022-07-31T23:03:15.212Z,2.20
2022-07-31T23:08:18.707Z,2.30
2022-07-31T23:13:23.631Z,2.27
2022-07-31T23:18:27.138Z,2.73
2022-07-31T23:23:30.731Z,2.63
2022-07-31T23:28:35.604Z,2.20
2022-07-31T23:33:39.137Z,2.63
2022-07-31T23:38:43.410Z,2.60
2022-07-31T23:43:54.402Z,2.97
2022-07-31T23:48:59.115Z,2.53
2022-07-31T23:54:05.681Z,2.53
2022-07-31T23:59:10.704Z,2.40
